Time;durP1;ratioP1;P1;durP2;ratioP2;P2;SDS_P1;SDS_P2;PMS_P1;PMS_P2;Temp;Humidity;BMP_temperature;BMP_pressure;BME280_temperature;BME280_humidity;BME280_pressure;Samples;Min_cycle;Max_cycle;Signal;HPM_P1;HPM_P2
2024/01/09 00:00:38;;;;;;;0.30;0.30;;;0.60;99.90;;;;;;5091651;28;20256;-71
2024/01/09 00:03:04;;;;;;;0.30;0.30;;;0.50;99.90;;;;;;5090962;28;20220;-77
2024/01/09 00:05:30;;;;;;;0.30;0.30;;;0.50;99.90;;;;;;5091320;28;20640;-78
2024/01/09 00:07:55;;;;;;;0.30;0.30;;;0.60;99.90;;;;;;5092028;28;20440;-78
2024/01/09 00:10:21;;;;;;;0.30;0.30;;;0.50;99.90;;;;;;5092166;28;20417;-73
2024/01/09 00:12:47;;;;;;;0.30;0.30;;;0.40;99.90;;;;;;5091995;28;20218;-77
2024/01/09 00:15:13;;;;;;;0.30;0.30;;;0.40;99.90;;;;;;5090966;28;20200;-72
2024/01/09 00:17:40;;;;;;;0.30;0.30;;;0.30;99.90;;;;;;5090882;28;20180;-72
2024/01/09 00:20:06;;;;;;;0.30;0.30;;;0.20;99.90;;;;;;5091149;28;20188;-72
2024/01/09 00:22:32;;;;;;;0.30;0.30;;;0.20;99.90;;;;;;5090506;28;20180;-77
2024/01/09 00:24:58;;;;;;;0.30;0.30;;;0.10;99.90;;;;;;5090743;28;20642;-77
2024/01/09 00:27:23;;;;;;;0.30;0.30;;;0.10;99.90;;;;;;5091947;28;20555;-71
2024/01/09 00:29:49;;;;;;;0.30;0.30;;;0.10;99.90;;;;;;5092101;28;20172;-77
2024/01/09 00:32:15;;;;;;;0.30;0.30;;;0.00;99.90;;;;;;5089450;28;20547;-71
2024/01/09 00:34:41;;;;;;;0.30;0.30;;;0.00;99.90;;;;;;5090679;28;20196;-77
2024/01/09 00:37:07;;;;;;;0.30;0.30;;;0.00;99.90;;;;;;5090894;28;20176;-72
2024/01/09 00:39:33;;;;;;;0.30;0.30;;;0.00;99.90;;;;;;5092073;28;20207;-71
2024/01/09 00:41:58;;;;;;;0.30;0.30;;;-0.10;99.90;;;;;;5090344;28;20403;-77
2024/01/09 00:44:24;;;;;;;0.30;0.30;;;-0.10;99.90;;;;;;5092154;28;20212;-78
2024/01/09 00:46:50;;;;;;;0.30;0.30;;;-0.10;99.90;;;;;;5090138;28;20180;-77
2024/01/09 00:49:15;;;;;;;0.30;0.30;;;-0.20;99.90;;;;;;5090558;28;20442;-71
2024/01/09 00:51:41;;;;;;;0.30;0.30;;;-0.10;99.90;;;;;;5089662;28;20176;-78
2024/01/09 00:54:07;;;;;;;0.30;0.30;;;-0.10;99.90;;;;;;5091851;28;20271;-71
2024/01/09 00:56:32;;;;;;;0.30;0.30;;;-0.10;99.90;;;;;;5091404;28;20173;-72
2024/01/09 00:58:58;;;;;;;0.30;0.30;;;-0.20;99.90;;;;;;5091788;28;20220;-72
2024/01/09 01:01:24;;;;;;;0.30;0.30;;;-0.10;99.90;;;;;;5090373;28;20455;-77
2024/01/09 01:03:50;;;;;;;0.30;0.30;;;-0.20;99.90;;;;;;5089898;28;21052;-78
2024/01/09 01:06:15;;;;;;;0.30;0.30;;;-0.20;99.90;;;;;;5089815;28;20259;-71
2024/01/09 01:08:41;;;;;;;0.30;0.20;;;-0.20;99.90;;;;;;5089489;28;20552;-78
2024/01/09 01:11:08;;;;;;;0.30;0.30;;;-0.10;99.90;;;;;;5089630;28;20222;-72
2024/01/09 01:13:33;;;;;;;0.30;0.30;;;-0.10;99.90;;;;;;5091618;28;20553;-78
2024/01/09 01:15:59;;;;;;;0.30;0.30;;;-0.10;99.90;;;;;;5090100;28;20173;-75
2024/01/09 01:18:25;;;;;;;0.30;0.30;;;-0.10;99.90;;;;;;5089708;28;20357;-72
2024/01/09 01:20:51;;;;;;;0.30;0.30;;;-0.10;99.90;;;;;;5091167;28;20425;-74
2024/01/09 01:23:17;;;;;;;0.30;0.30;;;-0.10;99.90;;;;;;5089368;28;20220;-71
2024/01/09 01:25:42;;;;;;;0.30;0.30;;;-0.10;99.90;;;;;;5089906;28;20425;-73
2024/01/09 01:28:08;;;;;;;0.30;0.30;;;-0.10;99.90;;;;;;5090876;28;20205;-71
2024/01/09 01:30:34;;;;;;;0.30;0.30;;;-0.10;99.90;;;;;;5089455;28;20225;-72
2024/01/09 01:32:59;;;;;;;0.30;0.30;;;0.00;99.90;;;;;;5089597;28;20361;-78
2024/01/09 01:35:25;;;;;;;0.30;0.30;;;0.00;99.90;;;;;;5091121;28;20183;-73
2024/01/09 01:37:51;;;;;;;0.30;0.30;;;0.00;99.90;;;;;;5090171;28;20653;-71
2024/01/09 01:40:17;;;;;;;0.30;0.30;;;0.00;99.90;;;;;;5091018;28;20449;-72
2024/01/09 01:42:43;;;;;;;0.30;0.30;;;0.00;99.90;;;;;;5088475;28;20399;-78
2024/01/09 01:45:23;;;;;;;0.30;0.30;;;0.00;99.90;;;;;;5089491;28;20570;-78
2024/01/09 01:47:49;;;;;;;0.30;0.30;;;0.00;99.90;;;;;;5090629;28;20595;-77
2024/01/09 01:50:15;;;;;;;0.30;0.30;;;0.00;99.90;;;;;;5089614;28;20180;-76
2024/01/09 01:52:43;;;;;;;0.30;0.30;;;0.00;99.90;;;;;;5090020;28;20589;-71
2024/01/09 01:55:13;;;;;;;0.30;0.30;;;0.00;99.90;;;;;;5088247;28;20184;-78
2024/01/09 01:57:40;;;;;;;0.30;0.30;;;0.00;99.90;;;;;;5088943;28;20215;-72
2024/01/09 02:00:07;;;;;;;0.30;0.30;;;0.00;99.90;;;;;;5089533;28;20176;-72
2024/01/09 02:02:35;;;;;;;0.30;0.30;;;0.10;99.90;;;;;;5090001;28;20192;-71
2024/01/09 02:05:02;;;;;;;0.30;0.30;;;0.10;99.90;;;;;;5090208;28;20303;-78
2024/01/09 02:07:30;;;;;;;0.30;0.30;;;0.10;99.90;;;;;;5089997;28;20172;-71
2024/01/09 02:09:57;;;;;;;0.30;0.30;;;0.10;99.90;;;;;;5087987;28;20176;-78
2024/01/09 02:12:23;;;;;;;0.30;0.30;;;0.10;99.90;;;;;;5088709;28;20549;-78
2024/01/09 02:14:48;;;;;;;0.30;0.30;;;0.10;99.90;;;;;;5090041;28;20433;-75
2024/01/09 02:17:14;;;;;;;0.30;0.30;;;0.10;99.90;;;;;;5089087;28;20176;-78
2024/01/09 02:19:40;;;;;;;0.30;0.30;;;0.10;99.90;;;;;;5089031;28;20373;-71
2024/01/09 02:22:05;;;;;;;0.30;0.30;;;0.10;99.90;;;;;;5089084;28;20325;-72
2024/01/09 02:24:31;;;;;;;0.30;0.30;;;0.10;99.90;;;;;;5088742;28;20224;-72
2024/01/09 02:27:23;;;;;;;0.30;0.30;;;0.20;99.90;;;;;;5089821;28;20559;-76
2024/01/09 02:29:49;;;;;;;0.30;0.30;;;0.10;99.90;;;;;;5069756;28;20326;-72
2024/01/09 02:32:16;;;;;;;0.30;0.30;;;0.20;99.90;;;;;;5088525;28;20313;-71
2024/01/09 02:34:44;;;;;;;0.30;0.30;;;0.10;99.90;;;;;;5088410;28;20192;-72
2024/01/09 02:37:10;;;;;;;0.30;0.30;;;0.20;99.90;;;;;;5088301;28;20544;-78
2024/01/09 02:39:36;;;;;;;0.30;0.30;;;0.20;99.90;;;;;;5089804;28;20208;-78
2024/01/09 02:42:02;;;;;;;0.30;0.30;;;0.20;99.90;;;;;;5088536;28;20184;-79
2024/01/09 02:44:28;;;;;;;0.30;0.30;;;0.20;99.90;;;;;;5088420;28;20450;-78
2024/01/09 02:46:54;;;;;;;0.30;0.30;;;0.20;99.90;;;;;;5089696;28;20544;-77
2024/01/09 02:49:19;;;;;;;0.30;0.30;;;0.20;99.90;;;;;;5090261;28;20254;-73
2024/01/09 02:51:45;;;;;;;0.30;0.30;;;0.30;99.90;;;;;;5088303;28;20630;-72
2024/01/09 02:54:10;;;;;;;0.30;0.30;;;0.30;99.90;;;;;;5089481;28;20200;-71
2024/01/09 02:56:39;;;;;;;0.30;0.30;;;0.30;99.90;;;;;;5091554;28;20177;-73
2024/01/09 02:59:05;;;;;;;0.30;0.30;;;0.30;99.90;;;;;;5093656;28;20204;-78
2024/01/09 03:01:31;;;;;;;0.30;0.30;;;0.30;99.90;;;;;;5093834;28;20187;-71
2024/01/09 03:03:57;;;;;;;0.30;0.30;;;0.30;99.90;;;;;;5093830;28;20223;-71
2024/01/09 03:06:23;;;;;;;0.30;0.30;;;0.30;99.90;;;;;;5093675;28;20647;-72
2024/01/09 03:08:48;;;;;;;0.30;0.30;;;0.30;99.90;;;;;;5091703;28;20228;-71
2024/01/09 03:11:15;;;;;;;0.30;0.30;;;0.30;99.90;;;;;;5091860;28;20565;-72
2024/01/09 03:13:40;;;;;;;0.30;0.30;;;0.30;99.90;;;;;;5093463;28;20769;-71
2024/01/09 03:16:13;;;;;;;0.30;0.30;;;0.30;99.90;;;;;;5093543;28;20251;-75
2024/01/09 03:18:40;;;;;;;0.30;0.30;;;0.20;99.90;;;;;;5092033;28;20415;-78
2024/01/09 03:21:06;;;;;;;0.30;0.30;;;0.20;99.90;;;;;;5092392;28;20233;-78
2024/01/09 03:23:32;;;;;;;0.30;0.30;;;0.20;99.90;;;;;;5093285;28;20220;-72
2024/01/09 03:25:58;;;;;;;0.30;0.30;;;0.10;99.90;;;;;;5092068;28;20633;-72
2024/01/09 03:28:28;;;;;;;0.30;0.30;;;0.10;99.90;;;;;;5091923;28;20303;-73
2024/01/09 03:30:54;;;;;;;0.30;0.30;;;0.00;99.90;;;;;;5091997;28;20168;-71
2024/01/09 03:33:19;;;;;;;0.30;0.30;;;0.00;99.90;;;;;;5093164;28;20287;-71
2024/01/09 03:35:45;;;;;;;0.30;0.30;;;-0.10;99.90;;;;;;5093195;28;20179;-78
2024/01/09 03:38:12;;;;;;;0.30;0.30;;;-0.10;99.90;;;;;;5092983;28;20616;-71
2024/01/09 03:40:37;;;;;;;0.30;0.30;;;-0.20;99.90;;;;;;5091907;28;20173;-77
2024/01/09 03:43:06;;;;;;;0.30;0.30;;;-0.20;99.90;;;;;;5092606;28;20209;-71
2024/01/09 03:45:32;;;;;;;0.30;0.30;;;-0.20;99.90;;;;;;5093086;28;20168;-78
2024/01/09 03:47:57;;;;;;;0.30;0.30;;;-0.20;99.90;;;;;;5091225;28;20227;-78
2024/01/09 03:50:24;;;;;;;0.30;0.30;;;-0.20;99.90;;;;;;5091780;28;20173;-78
2024/01/09 03:52:50;;;;;;;0.30;0.30;;;-0.20;99.90;;;;;;5091172;28;20689;-72
2024/01/09 03:55:16;;;;;;;0.30;0.30;;;-0.30;99.90;;;;;;5093053;28;20208;-78
2024/01/09 03:57:45;;;;;;;0.30;0.30;;;-0.40;99.90;;;;;;5091302;28;20466;-79
2024/01/09 04:00:11;;;;;;;0.30;0.30;;;-0.40;99.90;;;;;;5091384;28;20172;-79
2024/01/09 04:02:37;;;;;;;0.30;0.30;;;-0.40;99.90;;;;;;5092439;28;20188;-78
2024/01/09 04:05:03;;;;;;;0.30;0.30;;;-0.40;99.90;;;;;;5091167;28;20268;-71
2024/01/09 04:07:29;;;;;;;0.30;0.30;;;-0.50;99.90;;;;;;5092332;28;20683;-77
2024/01/09 04:09:55;;;;;;;0.30;0.30;;;-0.50;99.90;;;;;;5090853;28;20177;-72
2024/01/09 04:12:21;;;;;;;0.30;0.30;;;-0.40;99.90;;;;;;5092072;28;20183;-73
2024/01/09 04:14:47;;;;;;;0.30;0.30;;;0.10;99.90;;;;;;5092262;28;20199;-71
2024/01/09 04:17:12;;;;;;;0.30;0.30;;;0.40;99.90;;;;;;5090665;28;20380;-78
2024/01/09 04:19:39;;;;;;;0.30;0.30;;;0.70;99.90;;;;;;5090946;28;20196;-78
2024/01/09 04:22:06;;;;;;;1.15;1.15;;;1.10;99.90;;;;;;5092301;28;20198;-78
2024/01/09 04:24:33;;;;;;;0.30;0.30;;;1.20;99.90;;;;;;5091925;28;20299;-79
2024/01/09 04:26:59;;;;;;;0.30;0.30;;;1.40;99.90;;;;;;5090710;28;20267;-78
2024/01/09 04:29:25;;;;;;;0.30;0.30;;;1.40;99.90;;;;;;5091969;28;20279;-79
2024/01/09 04:31:51;;;;;;;0.30;0.30;;;1.30;99.90;;;;;;5091873;28;20176;-72
2024/01/09 04:34:17;;;;;;;0.30;0.30;;;1.30;99.90;;;;;;5090993;28;20211;-78
2024/01/09 04:36:43;;;;;;;0.65;0.65;;;1.50;99.90;;;;;;5090447;28;20187;-78
2024/01/09 04:39:09;;;;;;;0.30;0.30;;;1.70;99.90;;;;;;5091633;28;20212;-71
2024/01/09 04:41:35;;;;;;;0.30;0.30;;;1.50;99.90;;;;;;5090638;28;20387;-78
2024/01/09 04:44:00;;;;;;;0.30;0.30;;;1.40;99.90;;;;;;5091497;28;20262;-79
2024/01/09 04:46:26;;;;;;;0.30;0.20;;;1.40;99.90;;;;;;5090392;28;20184;-77
2024/01/09 04:48:52;;;;;;;0.30;0.20;;;1.40;99.90;;;;;;5091759;28;20345;-78
2024/01/09 04:51:18;;;;;;;0.30;0.30;;;1.40;99.90;;;;;;5090858;28;20663;-78
2024/01/09 04:53:43;;;;;;;0.30;0.30;;;1.40;99.90;;;;;;5091499;28;20883;-79
2024/01/09 04:56:09;;;;;;;0.30;0.20;;;1.50;99.90;;;;;;5091510;28;20168;-72
2024/01/09 04:58:35;;;;;;;0.30;0.30;;;1.40;99.90;;;;;;5091424;28;20205;-71
2024/01/09 05:01:01;;;;;;;0.33;0.30;;;1.60;99.90;;;;;;5089779;28;20187;-77
2024/01/09 05:03:26;;;;;;;0.30;0.30;;;2.10;99.90;;;;;;5089402;28;20560;-71
2024/01/09 05:05:52;;;;;;;0.30;0.30;;;1.90;99.90;;;;;;5090728;28;20449;-78
2024/01/09 05:08:18;;;;;;;0.30;0.30;;;2.20;99.90;;;;;;5089894;28;20204;-71
2024/01/09 05:10:44;;;;;;;0.30;0.30;;;1.80;99.90;;;;;;5089991;28;20657;-72
2024/01/09 05:13:09;;;;;;;0.30;0.30;;;1.30;99.90;;;;;;5090344;28;20193;-78
2024/01/09 05:15:35;;;;;;;0.30;0.30;;;1.00;99.90;;;;;;5089406;28;20309;-72
2024/01/09 05:18:01;;;;;;;0.30;0.30;;;0.80;99.90;;;;;;5089639;28;20275;-71
2024/01/09 05:20:27;;;;;;;0.30;0.30;;;0.50;99.90;;;;;;5089763;28;20595;-78
2024/01/09 05:22:54;;;;;;;0.30;0.30;;;0.40;99.90;;;;;;5087640;28;20244;-71
2024/01/09 05:25:19;;;;;;;0.30;0.30;;;0.20;99.90;;;;;;5090728;28;20451;-72
2024/01/09 05:27:45;;;;;;;0.30;0.30;;;0.10;99.90;;;;;;5090417;28;20213;-71
2024/01/09 05:30:11;;;;;;;0.30;0.30;;;0.00;99.90;;;;;;5089389;28;20574;-72
2024/01/09 05:32:36;;;;;;;0.30;0.30;;;-0.10;99.90;;;;;;5090213;28;20180;-71
2024/01/09 05:35:02;;;;;;;0.30;0.30;;;-0.20;99.90;;;;;;5090117;28;20412;-71
2024/01/09 05:37:28;;;;;;;0.30;0.30;;;-0.20;99.90;;;;;;5088896;28;20234;-78
2024/01/09 05:39:54;;;;;;;0.30;0.30;;;-0.20;99.90;;;;;;5089368;28;20200;-79
2024/01/09 05:42:20;;;;;;;0.30;0.30;;;-0.30;99.90;;;;;;5089110;28;20172;-80
2024/01/09 05:44:46;;;;;;;0.30;0.30;;;-0.40;99.90;;;;;;5090297;28;20234;-79
2024/01/09 05:47:11;;;;;;;0.30;0.30;;;-0.50;99.90;;;;;;5089425;28;20173;-74
2024/01/09 05:49:37;;;;;;;0.30;0.30;;;-0.50;99.90;;;;;;5090025;28;20335;-74
2024/01/09 05:52:03;;;;;;;0.30;0.30;;;-0.60;99.90;;;;;;5089970;28;20255;-80
2024/01/09 05:54:28;;;;;;;0.30;0.30;;;-0.60;99.90;;;;;;5088699;28;20213;-73
2024/01/09 05:56:54;;;;;;;0.30;0.30;;;-0.60;99.90;;;;;;5087466;28;20392;-74
2024/01/09 05:59:20;;;;;;;0.30;0.30;;;-0.60;99.90;;;;;;5090273;28;20228;-79
2024/01/09 06:01:46;;;;;;;0.30;0.30;;;-0.60;99.90;;;;;;5087690;28;20188;-78
2024/01/09 06:04:11;;;;;;;0.30;0.30;;;-0.50;99.90;;;;;;5089667;28;20274;-78
2024/01/09 06:06:37;;;;;;;0.30;0.30;;;-0.60;99.90;;;;;;5088405;28;20227;-76
2024/01/09 06:09:03;;;;;;;0.30;0.30;;;-0.60;99.90;;;;;;5086493;28;20420;-76
2024/01/09 06:11:29;;;;;;;0.30;0.30;;;-0.60;99.90;;;;;;5087449;28;20173;-78
2024/01/09 06:13:55;;;;;;;0.30;0.30;;;-0.60;99.90;;;;;;5087728;28;20203;-78
2024/01/09 06:16:22;;;;;;;0.30;0.30;;;-0.60;99.90;;;;;;5087484;28;20176;-77
2024/01/09 06:18:48;;;;;;;0.30;0.30;;;-0.60;99.90;;;;;;5088402;28;20204;-78
2024/01/09 06:21:13;;;;;;;0.30;0.20;;;-0.60;99.90;;;;;;5086946;28;20671;-76
2024/01/09 06:23:39;;;;;;;0.30;0.30;;;-0.60;99.90;;;;;;5084857;28;20216;-77
2024/01/09 06:26:05;;;;;;;0.30;0.20;;;-0.50;99.90;;;;;;5087145;28;20174;-78
2024/01/09 06:28:33;;;;;;;0.30;0.30;;;-0.50;99.90;;;;;;5087735;28;20665;-76
2024/01/09 06:30:59;;;;;;;0.30;0.30;;;-0.50;99.90;;;;;;5086287;28;20176;-76
2024/01/09 06:33:25;;;;;;;0.30;0.30;;;-0.50;99.90;;;;;;5086223;28;20204;-77
2024/01/09 06:35:50;;;;;;;0.30;0.30;;;-0.50;99.90;;;;;;5087500;28;20376;-78
2024/01/09 06:38:16;;;;;;;0.30;0.30;;;-0.50;99.90;;;;;;5085665;28;20442;-78
2024/01/09 06:40:42;;;;;;;0.97;0.97;;;-0.40;99.90;;;;;;5086150;28;20334;-78
2024/01/09 06:43:07;;;;;;;0.30;0.30;;;-0.40;99.90;;;;;;5083991;28;20307;-80
2024/01/09 06:45:34;;;;;;;0.30;0.30;;;-0.30;99.90;;;;;;5084751;28;20173;-79
2024/01/09 06:48:00;;;;;;;0.30;0.30;;;-0.30;99.90;;;;;;5081142;28;20208;-78
2024/01/09 06:50:26;;;;;;;0.30;0.30;;;-0.30;99.90;;;;;;5079150;28;20191;-79
2024/01/09 06:52:51;;;;;;;0.30;0.30;;;-0.20;99.90;;;;;;5081163;28;20461;-79
2024/01/09 06:55:17;;;;;;;0.30;0.30;;;-0.20;99.90;;;;;;5081290;28;20164;-78
2024/01/09 06:57:43;;;;;;;0.30;0.30;;;-0.10;99.90;;;;;;5083970;28;21920;-79
2024/01/09 07:00:09;;;;;;;0.30;0.30;;;-0.10;99.90;;;;;;5084086;28;20168;-78
2024/01/09 07:02:35;;;;;;;0.30;0.30;;;-0.10;99.90;;;;;;5084304;28;20272;-79
2024/01/09 07:05:01;;;;;;;0.30;0.30;;;0.00;99.90;;;;;;5081033;28;20893;-79
2024/01/09 07:07:27;;;;;;;0.30;0.30;;;0.00;99.90;;;;;;5085639;28;20246;-79
2024/01/09 07:09:53;;;;;;;0.30;0.30;;;0.10;99.90;;;;;;5082327;28;20173;-79
2024/01/09 07:12:18;;;;;;;0.30;0.30;;;0.10;99.90;;;;;;5081606;28;20724;-78
2024/01/09 07:14:44;;;;;;;0.30;0.30;;;0.10;99.90;;;;;;5083597;28;20198;-79
2024/01/09 07:17:10;;;;;;;0.30;0.30;;;0.20;99.90;;;;;;5083089;28;20177;-79
2024/01/09 07:19:36;;;;;;;0.30;0.30;;;0.20;99.90;;;;;;5077944;28;20802;-78
2024/01/09 07:22:02;;;;;;;0.30;0.30;;;0.20;99.90;;;;;;5072570;28;20235;-80
2024/01/09 07:24:27;;;;;;;0.30;0.30;;;0.30;99.90;;;;;;5069274;28;20216;-78
2024/01/09 07:26:53;;;;;;;0.30;0.30;;;0.20;99.90;;;;;;5069868;28;21123;-81
2024/01/09 07:29:19;;;;;;;0.30;0.30;;;0.30;99.90;;;;;;5078793;28;20200;-79
2024/01/09 07:31:45;;;;;;;0.30;0.30;;;0.30;99.90;;;;;;5082695;28;20683;-80
2024/01/09 07:34:11;;;;;;;0.30;0.30;;;0.30;99.90;;;;;;5082563;28;20201;-80
2024/01/09 07:36:37;;;;;;;0.30;0.30;;;0.30;99.90;;;;;;5083952;28;20187;-78
2024/01/09 07:39:05;;;;;;;0.30;0.30;;;0.40;99.90;;;;;;5078016;28;20208;-77
2024/01/09 07:41:31;;;;;;;0.30;0.30;;;0.40;99.90;;;;;;5064167;28;20178;-80
2024/01/09 07:43:57;;;;;;;0.30;0.27;;;0.40;99.90;;;;;;5080862;28;20216;-77
2024/01/09 07:46:23;;;;;;;0.30;0.30;;;0.50;99.90;;;;;;5084206;28;20941;-81
2024/01/09 07:48:48;;;;;;;0.30;0.30;;;0.40;99.90;;;;;;5088180;28;20196;-77
2024/01/09 07:51:14;;;;;;;0.30;0.30;;;0.40;99.90;;;;;;5087797;28;20180;-81
2024/01/09 07:53:40;;;;;;;0.30;0.30;;;0.50;99.90;;;;;;5077051;28;20286;-81
2024/01/09 07:56:19;;;;;;;0.30;0.30;;;0.50;99.90;;;;;;5064147;28;20572;-81
2024/01/09 07:58:45;;;;;;;0.30;0.30;;;0.60;99.90;;;;;;5086828;28;20336;-81
2024/01/09 08:01:16;;;;;;;0.30;0.30;;;0.60;99.90;;;;;;5082909;28;20164;-81
2024/01/09 08:03:41;;;;;;;0.30;0.30;;;0.70;99.90;;;;;;5081005;28;20309;-81
2024/01/09 08:06:14;;;;;;;0.30;0.30;;;0.70;99.90;;;;;;5086644;28;20295;-81
2024/01/09 08:08:41;;;;;;;0.30;0.30;;;0.80;99.90;;;;;;5095804;28;20283;-77
2024/01/09 08:11:07;;;;;;;0.30;0.30;;;0.80;99.90;;;;;;5088950;28;20194;-81
2024/01/09 08:13:32;;;;;;;0.30;0.30;;;0.80;99.90;;;;;;5085450;28;20196;-81
2024/01/09 08:15:58;;;;;;;0.30;0.30;;;1.00;99.90;;;;;;5084327;28;20383;-77
2024/01/09 08:18:24;;;;;;;0.30;0.20;;;1.00;99.90;;;;;;5089657;28;20200;-81
2024/01/09 08:20:50;;;;;;;0.30;0.30;;;1.10;99.90;;;;;;5089051;28;20192;-78
2024/01/09 08:23:16;;;;;;;0.30;0.30;;;1.20;99.90;;;;;;5102989;28;20295;-77
2024/01/09 08:25:42;;;;;;;0.30;0.30;;;1.20;99.90;;;;;;5108513;27;20181;-81
2024/01/09 08:28:08;;;;;;;0.30;0.30;;;1.20;99.90;;;;;;5083176;28;20441;-81
2024/01/09 08:30:34;;;;;;;0.30;0.30;;;1.20;99.90;;;;;;5097003;28;20183;-81
2024/01/09 08:33:00;;;;;;;0.30;0.30;;;1.20;99.90;;;;;;5087478;28;20561;-77
2024/01/09 08:35:25;;;;;;;0.30;0.30;;;1.20;99.90;;;;;;5078805;28;20441;-77
2024/01/09 08:37:52;;;;;;;0.30;0.30;;;1.20;99.90;;;;;;5079011;28;20459;-81
2024/01/09 08:40:17;;;;;;;0.30;0.30;;;1.20;99.90;;;;;;5106716;27;20228;-81
2024/01/09 08:42:43;;;;;;;0.40;0.30;;;1.20;99.90;;;;;;5087458;28;20240;-77
2024/01/09 08:45:09;;;;;;;0.30;0.30;;;1.30;99.90;;;;;;5090214;28;20736;-77
2024/01/09 08:47:35;;;;;;;0.30;0.23;;;1.30;99.90;;;;;;5108188;27;20821;-81
2024/01/09 08:50:02;;;;;;;0.30;0.30;;;1.20;99.90;;;;;;5089099;28;20523;-81
2024/01/09 08:52:27;;;;;;;0.30;0.30;;;1.20;99.90;;;;;;5103075;27;20230;-81
2024/01/09 08:54:53;;;;;;;0.30;0.20;;;1.20;99.90;;;;;;5093700;28;20203;-77
2024/01/09 08:57:20;;;;;;;0.30;0.30;;;1.20;99.90;;;;;;5087574;28;20257;-81
2024/01/09 08:59:46;;;;;;;0.30;0.30;;;1.10;99.90;;;;;;5096940;28;20322;-77
2024/01/09 09:02:11;;;;;;;0.30;0.30;;;1.10;99.90;;;;;;5075131;27;20183;-80
2024/01/09 09:04:37;;;;;;;0.30;0.30;;;1.10;99.90;;;;;;5084765;28;20216;-76
2024/01/09 09:07:03;;;;;;;0.30;0.30;;;1.10;99.90;;;;;;5075203;28;20316;-80
2024/01/09 09:09:30;;;;;;;12.80;11.20;;;1.20;99.90;;;;;;5079692;28;20872;-75
2024/01/09 09:11:58;;;;;;;0.30;0.30;;;1.30;99.90;;;;;;5085270;28;20486;-76
2024/01/09 09:14:24;;;;;;;0.30;0.30;;;1.60;99.90;;;;;;5043227;28;20208;-76
2024/01/09 09:16:50;;;;;;;0.30;0.30;;;2.20;99.90;;;;;;5085407;28;20167;-76
2024/01/09 09:19:17;;;;;;;0.30;0.30;;;3.30;99.90;;;;;;5106675;27;20442;-80
2024/01/09 09:21:43;;;;;;;1.47;1.40;;;4.50;99.90;;;;;;5082578;28;20635;-76
2024/01/09 09:24:09;;;;;;;0.30;0.30;;;5.60;99.90;;;;;;5078117;28;20840;-80
2024/01/09 09:26:35;;;;;;;0.40;0.30;;;6.70;99.20;;;;;;5076173;28;20172;-80
2024/01/09 09:29:01;;;;;;;0.93;0.93;;;7.70;97.50;;;;;;5085016;28;20983;-76
2024/01/09 09:31:27;;;;;;;0.40;0.30;;;8.60;96.20;;;;;;5084843;27;20325;-77
2024/01/09 09:33:55;;;;;;;0.40;0.30;;;9.40;94.00;;;;;;5077020;28;20865;-79
2024/01/09 09:36:21;;;;;;;0.40;0.30;;;9.90;92.60;;;;;;5060904;28;20187;-79
2024/01/09 09:38:47;;;;;;;0.30;0.30;;;10.30;91.10;;;;;;5107509;27;20207;-75
2024/01/09 09:41:16;;;;;;;0.30;0.30;;;10.70;90.70;;;;;;5091677;28;20428;-78
2024/01/09 09:43:53;;;;;;;1.38;1.35;;;11.00;90.10;;;;;;5111869;27;20572;-78
2024/01/09 09:46:30;;;;;;;0.40;0.30;;;11.40;89.00;;;;;;5090235;28;20199;-78
2024/01/09 09:48:56;;;;;;;0.30;0.30;;;11.60;86.80;;;;;;5032859;28;20640;-75
2024/01/09 09:51:24;;;;;;;0.30;0.30;;;11.80;84.80;;;;;;5033351;28;21444;-79
2024/01/09 09:53:52;;;;;;;0.30;0.20;;;12.00;84.30;;;;;;5028873;28;20744;-79
2024/01/09 09:56:19;;;;;;;0.35;0.28;;;12.20;83.70;;;;;;5029858;28;20238;-76
2024/01/09 09:58:45;;;;;;;3.10;2.58;;;12.20;82.30;;;;;;5065324;28;20211;-78
2024/01/09 10:01:13;;;;;;;0.30;0.20;;;11.90;81.10;;;;;;5087339;28;20699;-76
2024/01/09 10:04:01;;;;;;;0.30;0.30;;;11.60;82.00;;;;;;5082249;28;20247;-76
2024/01/09 10:06:28;;;;;;;0.30;0.20;;;11.00;84.60;;;;;;5048003;28;20219;-75
2024/01/09 10:08:56;;;;;;;0.30;0.20;;;10.30;87.70;;;;;;5082476;28;20223;-75
2024/01/09 10:11:23;;;;;;;0.73;0.73;;;9.50;88.80;;;;;;5077695;28;20222;-80
2024/01/09 10:13:49;;;;;;;0.30;0.20;;;8.80;87.60;;;;;;5082726;28;20374;-78
2024/01/09 10:16:15;;;;;;;0.30;0.20;;;8.10;87.30;;;;;;5084047;28;20191;-80
2024/01/09 10:18:41;;;;;;;17.33;16.53;;;7.40;88.40;;;;;;5116183;27;20199;-80
2024/01/09 10:21:07;;;;;;;0.30;0.20;;;7.00;93.90;;;;;;5079319;28;20226;-76
2024/01/09 10:23:36;;;;;;;0.30;0.20;;;6.60;90.30;;;;;;5080558;28;20228;-76
2024/01/09 10:26:02;;;;;;;0.30;0.20;;;6.40;99.90;;;;;;5067589;28;20187;-80
2024/01/09 10:28:28;;;;;;;0.30;0.20;;;6.50;99.90;;;;;;5081497;28;20226;-80
2024/01/09 10:30:54;;;;;;;0.30;0.30;;;6.40;99.90;;;;;;5080766;28;20745;-75
2024/01/09 10:33:23;;;;;;;0.30;0.30;;;6.00;95.40;;;;;;5095922;27;20251;-79
2024/01/09 10:35:49;;;;;;;0.30;0.20;;;5.50;94.80;;;;;;5065931;28;20185;-76
2024/01/09 10:38:27;;;;;;;0.40;0.20;;;5.10;95.00;;;;;;5054440;28;21394;-80
2024/01/09 10:40:56;;;;;;;0.30;0.30;;;4.80;94.70;;;;;;5063612;28;20190;-80
2024/01/09 10:43:25;;;;;;;0.30;0.30;;;4.50;95.20;;;;;;5096471;28;20214;-80
2024/01/09 10:45:52;;;;;;;0.30;0.20;;;4.30;95.80;;;;;;5082053;28;20271;-76
2024/01/09 10:48:22;;;;;;;0.30;0.30;;;4.10;95.70;;;;;;5087333;28;20195;-78
2024/01/09 10:50:51;;;;;;;0.57;0.57;;;4.00;96.10;;;;;;5082863;28;20614;-78
2024/01/09 10:53:23;;;;;;;0.30;0.30;;;3.80;96.50;;;;;;5087711;28;20193;-78
2024/01/09 10:55:49;;;;;;;0.30;0.20;;;3.70;96.50;;;;;;5103532;28;20562;-74
2024/01/09 10:58:17;;;;;;;0.30;0.30;;;3.70;97.00;;;;;;5080512;28;20232;-74
2024/01/09 11:00:43;;;;;;;0.30;0.30;;;3.60;97.00;;;;;;5073416;28;20181;-78
2024/01/09 11:03:11;;;;;;;0.30;0.30;;;3.70;97.10;;;;;;5076739;28;20204;-79
2024/01/09 11:05:37;;;;;;;0.30;0.30;;;3.80;97.50;;;;;;5074663;28;20242;-74
2024/01/09 11:08:07;;;;;;;0.30;0.30;;;3.80;97.30;;;;;;5081959;28;20195;-73
2024/01/09 11:10:33;;;;;;;0.30;0.30;;;3.80;96.90;;;;;;5069838;28;20220;-73
2024/01/09 11:13:00;;;;;;;0.30;0.20;;;3.80;97.00;;;;;;5082270;28;20854;-77
2024/01/09 11:15:44;;;;;;;0.30;0.28;;;3.80;96.80;;;;;;5070576;28;20187;-78
2024/01/09 11:18:14;;;;;;;0.30;0.30;;;3.70;97.00;;;;;;5084907;28;20995;-78
2024/01/09 11:20:40;;;;;;;0.30;0.20;;;3.70;97.40;;;;;;5081117;28;20276;-78
2024/01/09 11:23:06;;;;;;;0.30;0.30;;;3.60;97.00;;;;;;5087583;28;20333;-74
2024/01/09 11:25:33;;;;;;;0.30;0.30;;;3.60;96.80;;;;;;5082625;28;20188;-73
2024/01/09 11:28:00;;;;;;;0.30;0.30;;;3.60;96.90;;;;;;5090392;28;20192;-77
2024/01/09 11:30:28;;;;;;;0.30;0.20;;;3.50;96.70;;;;;;5085728;27;20187;-76
2024/01/09 11:32:55;;;;;;;0.30;0.30;;;3.40;96.80;;;;;;5084078;28;20263;-73
2024/01/09 11:35:21;;;;;;;0.30;0.30;;;3.40;96.90;;;;;;5082229;28;20180;-76
2024/01/09 11:37:48;;;;;;;0.30;0.20;;;3.30;97.30;;;;;;5089766;28;20196;-78
2024/01/09 11:40:16;;;;;;;0.30;0.20;;;3.30;97.60;;;;;;5095986;28;20272;-73
2024/01/09 11:42:50;;;;;;;0.30;0.30;;;3.20;97.70;;;;;;5082200;28;20266;-73
2024/01/09 11:45:24;;;;;;;0.30;0.30;;;3.20;98.00;;;;;;5070424;28;20226;-73
2024/01/09 11:47:50;;;;;;;0.30;0.30;;;3.20;98.00;;;;;;5075960;28;20200;-73
2024/01/09 11:50:16;;;;;;;0.30;0.30;;;3.10;98.00;;;;;;5061236;28;20510;-77
2024/01/09 11:52:43;;;;;;;0.30;0.20;;;3.20;99.10;;;;;;5076181;27;20231;-73
2024/01/09 11:55:10;;;;;;;0.30;0.20;;;3.20;98.70;;;;;;5048013;28;20739;-74
2024/01/09 11:57:40;;;;;;;0.30;0.30;;;3.20;98.30;;;;;;5044390;28;20937;-73
2024/01/09 12:00:08;;;;;;;0.30;0.30;;;3.20;98.50;;;;;;5075925;28;20722;-76
2024/01/09 12:02:39;;;;;;;0.30;0.30;;;3.20;98.40;;;;;;5028704;28;21064;-77
2024/01/09 12:05:09;;;;;;;0.30;0.30;;;3.20;98.10;;;;;;5068938;28;20335;-77
2024/01/09 12:07:39;;;;;;;0.30;0.30;;;3.20;98.70;;;;;;5072834;28;20176;-76
2024/01/09 12:10:08;;;;;;;0.30;0.30;;;3.20;98.60;;;;;;5102351;27;20705;-73
2024/01/09 12:12:34;;;;;;;0.30;0.20;;;3.20;98.40;;;;;;5019251;28;20270;-77
2024/01/09 12:15:00;;;;;;;0.30;0.30;;;3.30;98.50;;;;;;5022007;28;20397;-74
2024/01/09 12:17:34;;;;;;;0.30;0.30;;;3.30;98.70;;;;;;5075491;28;20189;-78
2024/01/09 12:20:01;;;;;;;0.30;0.30;;;3.30;98.50;;;;;;5078244;28;20268;-74
2024/01/09 12:22:27;;;;;;;0.30;0.20;;;3.30;98.90;;;;;;5076035;28;20170;-78
2024/01/09 12:24:55;;;;;;;0.30;0.20;;;3.30;98.80;;;;;;5075017;28;20274;-78
2024/01/09 12:27:23;;;;;;;0.30;0.30;;;3.30;99.00;;;;;;5077066;28;20707;-78
2024/01/09 12:29:51;;;;;;;0.30;0.22;;;3.30;98.50;;;;;;5071064;28;20185;-78
2024/01/09 12:32:18;;;;;;;0.30;0.20;;;3.30;99.00;;;;;;5072470;28;20181;-74
2024/01/09 12:34:45;;;;;;;0.30;0.30;;;3.30;98.50;;;;;;5077307;28;20232;-77
2024/01/09 12:37:11;;;;;;;0.30;0.20;;;3.30;99.70;;;;;;5080356;28;20767;-78
2024/01/09 12:39:39;;;;;;;0.30;0.20;;;3.40;98.80;;;;;;5080567;28;20254;-74
2024/01/09 12:42:10;;;;;;;0.30;0.20;;;3.40;98.90;;;;;;5073915;28;20514;-74
2024/01/09 12:44:37;;;;;;;0.30;0.30;;;3.40;99.00;;;;;;5075564;28;20369;-74
2024/01/09 12:47:03;;;;;;;0.30;0.30;;;3.40;98.90;;;;;;5047621;28;20188;-74
2024/01/09 12:49:29;;;;;;;0.30;0.30;;;3.40;99.10;;;;;;5020491;28;20456;-73